Egegik, AK (99579)

5:45 PM AKDT on October 01, 2014 (GMT -0800)
Egegik | Change Station
CLOSE
Current Station
Airport
Location: Egegik,
Elevation: 92 ft
Nearby Weather Stations

Elev 92 ft 58.19 °N, 157.39 °W | Updated 9 minutes ago

Clear
Clear
54 °F
Feels Like 54 °F
N
7
Wind Variable Wind from NNE

Today
High -- | Low -- °F
--% Chance of Precip.
Yesterday
High -- | Low -- °F
Precip. -- in
8:33 AM 8:01 PM
First Quarter, 53% visible
Pressure 30.07 in
Visibility 10.0 miles
Clouds Clear
Dew Point 34 °F
Humidity 47%
Rainfall 0.00 in
Snow Depth 16 in , 2 in , 1 in
UV 1 out of 12
Pollen Not available.
Air Quality Not available.
Flu Activity Not available.
METAR PAII 020136Z AUTO 03006KT 10SM CLR 12/01 A3007 RMK AO1

More Conditions Fewer Conditions

Pressure 30.07 in
Visibility 10.0 miles
Clouds Clear
Dew Point 34 °F
Humidity 47%
Rainfall 0.00 in
Snow Depth 16 in , 2 in , 1 in
UV 1 out of 12
Pollen Not available.
Air Quality Not available.
Flu Activity Not available.
METAR PAII 020136Z AUTO 03006KT 10SM CLR 12/01 A3007 RMK AO1

More Conditions Fewer Conditions

10-Day Weather Forecast

Almanac

Astronomy

Oct. 01, 2014 Rise Set
Actual Time 8:33 AM AKDT 8:01 PM AKDT
Civil Twilight 7:54 AM AKDT 8:40 PM AKDT
Nautical Twilight 7:08 AM AKDT 9:26 PM AKDT
Astronomical Twilight 6:20 AM AKDT 10:14 PM AKDT
Moon 4:39 PM AKDT (10/1) No Moon Set
Length of Visible Light 12h 46m
Length of Day
11h 28m
Tomorrow will be 5m 0s shorter.
First Quarter, 53% of the Moon is Illuminated
Today
First Quarter
Oct 8
Full
Oct 15
Last Quarter
Oct 23
New
Oct 30
First Quarter

Today's Extremes

State Highs State Lows

Community

WunderPhotos

Upload Photos

1,758,118 photos uploaded!

WunderBlogs® & News

Nearby

Snow Depth

Station Depth Elevation
Imnaviat Creek 16 in 3050 ft
Little Chena Ridge 2 in 2000 ft
Mcneil Canyon 1 in 1320 ft
MF Bradley River 3 in 2300 ft
Susitna Valley High 2 in 375 ft

Earthquake Activity

City Distance Mag. Time & Date
No recent earthquake activity has been reported nearby.
Minimum magnitude displayed is 2.5.

Coastal Water Temperatures

Place Temperature
No Stations Reporting

Nearby Weather Stations